sensor_id;sensor_type;location;lat;lon;timestamp;temperature;humidity
8557;DHT22;4316;53.840;10.762;2022-08-19T00:02:25;21.20;99.90
8557;DHT22;4316;53.840;10.762;2022-08-19T00:04:50;21.20;99.90
8557;DHT22;4316;53.840;10.762;2022-08-19T00:07:18;21.10;99.90
8557;DHT22;4316;53.840;10.762;2022-08-19T00:09:44;21.10;99.90
8557;DHT22;4316;53.840;10.762;2022-08-19T00:12:10;21.00;99.90
8557;DHT22;4316;53.840;10.762;2022-08-19T00:14:37;20.90;99.90
8557;DHT22;4316;53.840;10.762;2022-08-19T00:17:04;20.70;99.90
8557;DHT22;4316;53.840;10.762;2022-08-19T00:19:30;20.70;99.90
8557;DHT22;4316;53.840;10.762;2022-08-19T00:21:56;20.70;99.90
8557;DHT22;4316;53.840;10.762;2022-08-19T00:24:22;20.60;99.90
8557;DHT22;4316;53.840;10.762;2022-08-19T00:26:48;20.60;99.90
8557;DHT22;4316;53.840;10.762;2022-08-19T00:29:17;20.60;99.90
8557;DHT22;4316;53.840;10.762;2022-08-19T00:31:43;20.50;99.90
8557;DHT22;4316;53.840;10.762;2022-08-19T00:34:10;20.40;99.90
8557;DHT22;4316;53.840;10.762;2022-08-19T00:36:36;20.50;99.90
8557;DHT22;4316;53.840;10.762;2022-08-19T00:39:03;20.50;99.90
8557;DHT22;4316;53.840;10.762;2022-08-19T00:41:29;20.60;99.90
8557;DHT22;4316;53.840;10.762;2022-08-19T00:44:08;20.70;99.90
8557;DHT22;4316;53.840;10.762;2022-08-19T00:46:37;20.70;99.90
8557;DHT22;4316;53.840;10.762;2022-08-19T00:49:12;20.70;99.90
8557;DHT22;4316;53.840;10.762;2022-08-19T00:51:41;20.70;99.90
8557;DHT22;4316;53.840;10.762;2022-08-19T00:54:08;20.70;99.90
8557;DHT22;4316;53.840;10.762;2022-08-19T00:56:34;20.60;99.90
8557;DHT22;4316;53.840;10.762;2022-08-19T00:59:02;20.50;99.90
8557;DHT22;4316;53.840;10.762;2022-08-19T01:01:28;20.50;99.90
8557;DHT22;4316;53.840;10.762;2022-08-19T01:03:53;20.50;99.90
8557;DHT22;4316;53.840;10.762;2022-08-19T01:06:20;20.60;99.90
8557;DHT22;4316;53.840;10.762;2022-08-19T01:08:45;20.60;99.90
8557;DHT22;4316;53.840;10.762;2022-08-19T01:11:12;20.60;99.90
8557;DHT22;4316;53.840;10.762;2022-08-19T01:13:37;20.50;99.90
8557;DHT22;4316;53.840;10.762;2022-08-19T01:16:09;20.40;99.90
8557;DHT22;4316;53.840;10.762;2022-08-19T01:18:40;20.30;99.90
8557;DHT22;4316;53.840;10.762;2022-08-19T01:21:16;20.40;99.90
8557;DHT22;4316;53.840;10.762;2022-08-19T01:23:44;20.40;99.90
8557;DHT22;4316;53.840;10.762;2022-08-19T01:26:13;20.50;99.90
8557;DHT22;4316;53.840;10.762;2022-08-19T01:28:41;20.60;99.90
8557;DHT22;4316;53.840;10.762;2022-08-19T01:31:12;20.50;99.90
8557;DHT22;4316;53.840;10.762;2022-08-19T01:33:38;20.50;99.90
8557;DHT22;4316;53.840;10.762;2022-08-19T01:36:12;20.40;99.90
8557;DHT22;4316;53.840;10.762;2022-08-19T01:38:40;20.40;99.90
8557;DHT22;4316;53.840;10.762;2022-08-19T01:41:09;20.40;99.90
8557;DHT22;4316;53.840;10.762;2022-08-19T01:43:35;20.40;99.90
8557;DHT22;4316;53.840;10.762;2022-08-19T01:46:00;20.30;99.90
8557;DHT22;4316;53.840;10.762;2022-08-19T01:48:26;20.40;99.90
8557;DHT22;4316;53.840;10.762;2022-08-19T01:50:54;20.40;99.90
8557;DHT22;4316;53.840;10.762;2022-08-19T01:53:20;20.50;99.90
8557;DHT22;4316;53.840;10.762;2022-08-19T01:55:46;20.50;99.90
8557;DHT22;4316;53.840;10.762;2022-08-19T01:58:20;20.50;99.90
8557;DHT22;4316;53.840;10.762;2022-08-19T02:00:46;20.50;99.90
8557;DHT22;4316;53.840;10.762;2022-08-19T02:03:12;20.60;99.90
8557;DHT22;4316;53.840;10.762;2022-08-19T02:05:38;20.40;99.90
8557;DHT22;4316;53.840;10.762;2022-08-19T02:08:05;20.30;99.90
8557;DHT22;4316;53.840;10.762;2022-08-19T02:10:30;20.30;99.90
8557;DHT22;4316;53.840;10.762;2022-08-19T02:12:57;20.30;99.90
8557;DHT22;4316;53.840;10.762;2022-08-19T02:15:23;20.30;99.90
8557;DHT22;4316;53.840;10.762;2022-08-19T02:17:48;20.20;99.90
8557;DHT22;4316;53.840;10.762;2022-08-19T02:20:15;20.20;99.90
8557;DHT22;4316;53.840;10.762;2022-08-19T02:22:41;20.30;99.90
8557;DHT22;4316;53.840;10.762;2022-08-19T02:25:09;20.40;99.90
8557;DHT22;4316;53.840;10.762;2022-08-19T02:27:35;20.40;99.90
8557;DHT22;4316;53.840;10.762;2022-08-19T02:30:01;20.40;99.90
8557;DHT22;4316;53.840;10.762;2022-08-19T02:32:27;20.30;99.90
8557;DHT22;4316;53.840;10.762;2022-08-19T02:34:53;20.40;99.90
8557;DHT22;4316;53.840;10.762;2022-08-19T02:37:18;20.50;99.90
8557;DHT22;4316;53.840;10.762;2022-08-19T02:40:03;20.40;99.90
8557;DHT22;4316;53.840;10.762;2022-08-19T02:42:29;20.40;99.90
8557;DHT22;4316;53.840;10.762;2022-08-19T02:44:55;20.40;99.90
8557;DHT22;4316;53.840;10.762;2022-08-19T02:47:21;20.50;99.90
8557;DHT22;4316;53.840;10.762;2022-08-19T02:49:47;20.40;99.90
8557;DHT22;4316;53.840;10.762;2022-08-19T02:52:15;20.50;99.90
8557;DHT22;4316;53.840;10.762;2022-08-19T02:54:41;20.60;99.90
8557;DHT22;4316;53.840;10.762;2022-08-19T02:57:07;20.70;99.90
8557;DHT22;4316;53.840;10.762;2022-08-19T02:59:33;20.70;99.90
8557;DHT22;4316;53.840;10.762;2022-08-19T03:01:59;20.70;99.90
8557;DHT22;4316;53.840;10.762;2022-08-19T03:04:25;20.80;99.90
8557;DHT22;4316;53.840;10.762;2022-08-19T03:06:51;20.70;99.90
8557;DHT22;4316;53.840;10.762;2022-08-19T03:09:18;20.80;99.90
8557;DHT22;4316;53.840;10.762;2022-08-19T03:11:44;20.90;99.90
8557;DHT22;4316;53.840;10.762;2022-08-19T03:14:10;20.90;99.90
8557;DHT22;4316;53.840;10.762;2022-08-19T03:16:44;21.00;99.90
8557;DHT22;4316;53.840;10.762;2022-08-19T03:19:11;20.90;99.90
8557;DHT22;4316;53.840;10.762;2022-08-19T03:21:36;20.80;99.90
8557;DHT22;4316;53.840;10.762;2022-08-19T03:24:05;20.80;99.90
8557;DHT22;4316;53.840;10.762;2022-08-19T03:26:31;20.80;99.90
8557;DHT22;4316;53.840;10.762;2022-08-19T03:28:57;20.90;99.90
8557;DHT22;4316;53.840;10.762;2022-08-19T03:31:26;20.90;99.90
8557;DHT22;4316;53.840;10.762;2022-08-19T03:33:51;20.90;99.90
8557;DHT22;4316;53.840;10.762;2022-08-19T03:36:25;20.90;99.90
8557;DHT22;4316;53.840;10.762;2022-08-19T03:38:53;20.80;99.90
8557;DHT22;4316;53.840;10.762;2022-08-19T03:41:41;20.70;99.90
8557;DHT22;4316;53.840;10.762;2022-08-19T03:44:06;20.70;99.90
8557;DHT22;4316;53.840;10.762;2022-08-19T03:46:34;20.80;99.90
8557;DHT22;4316;53.840;10.762;2022-08-19T03:49:03;20.80;99.90
8557;DHT22;4316;53.840;10.762;2022-08-19T03:51:38;20.90;99.90
8557;DHT22;4316;53.840;10.762;2022-08-19T03:54:07;20.90;99.90
8557;DHT22;4316;53.840;10.762;2022-08-19T03:56:38;21.00;99.90
8557;DHT22;4316;53.840;10.762;2022-08-19T03:59:08;21.00;99.90
8557;DHT22;4316;53.840;10.762;2022-08-19T04:01:34;21.00;99.90
8557;DHT22;4316;53.840;10.762;2022-08-19T04:04:01;21.00;99.90
8557;DHT22;4316;53.840;10.762;2022-08-19T04:06:29;21.00;99.90
8557;DHT22;4316;53.840;10.762;2022-08-19T04:08:59;21.10;99.90
8557;DHT22;4316;53.840;10.762;2022-08-19T04:11:44;21.10;99.90
8557;DHT22;4316;53.840;10.762;2022-08-19T04:14:12;21.00;99.90
8557;DHT22;4316;53.840;10.762;2022-08-19T04:16:39;21.00;99.90
8557;DHT22;4316;53.840;10.762;2022-08-19T04:19:06;21.00;99.90
8557;DHT22;4316;53.840;10.762;2022-08-19T04:21:32;20.80;99.90
8557;DHT22;4316;53.840;10.762;2022-08-19T04:23:58;20.80;99.90
8557;DHT22;4316;53.840;10.762;2022-08-19T04:26:29;20.80;99.90
8557;DHT22;4316;53.840;10.762;2022-08-19T04:28:58;20.90;99.90
8557;DHT22;4316;53.840;10.762;2022-08-19T04:31:27;20.90;99.90
8557;DHT22;4316;53.840;10.762;2022-08-19T04:33:57;20.90;99.90
8557;DHT22;4316;53.840;10.762;2022-08-19T04:36:29;20.90;99.90
8557;DHT22;4316;53.840;10.762;2022-08-19T04:39:01;20.90;99.90
8557;DHT22;4316;53.840;10.762;2022-08-19T04:41:27;20.90;99.90
8557;DHT22;4316;53.840;10.762;2022-08-19T04:44:12;21.00;99.90
8557;DHT22;4316;53.840;10.762;2022-08-19T04:46:39;21.00;99.90
8557;DHT22;4316;53.840;10.762;2022-08-19T04:49:06;20.90;99.90
8557;DHT22;4316;53.840;10.762;2022-08-19T04:51:32;20.80;99.90
8557;DHT22;4316;53.840;10.762;2022-08-19T04:53:59;20.80;99.90
8557;DHT22;4316;53.840;10.762;2022-08-19T04:56:26;20.80;99.90
8557;DHT22;4316;53.840;10.762;2022-08-19T04:58:53;20.80;99.90
8557;DHT22;4316;53.840;10.762;2022-08-19T05:01:29;20.80;99.90
8557;DHT22;4316;53.840;10.762;2022-08-19T05:03:57;20.70;99.90
8557;DHT22;4316;53.840;10.762;2022-08-19T05:06:23;20.60;99.90
8557;DHT22;4316;53.840;10.762;2022-08-19T05:08:49;20.60;99.90
8557;DHT22;4316;53.840;10.762;2022-08-19T05:11:24;20.50;99.90
8557;DHT22;4316;53.840;10.762;2022-08-19T05:13:51;20.50;99.90
8557;DHT22;4316;53.840;10.762;2022-08-19T05:16:19;20.50;99.90
8557;DHT22;4316;53.840;10.762;2022-08-19T05:18:45;20.50;99.90
8557;DHT22;4316;53.840;10.762;2022-08-19T05:21:30;20.60;99.90
8557;DHT22;4316;53.840;10.762;2022-08-19T05:24:15;20.60;99.90
8557;DHT22;4316;53.840;10.762;2022-08-19T05:26:47;20.60;99.90
8557;DHT22;4316;53.840;10.762;2022-08-19T05:29:18;20.60;99.90
8557;DHT22;4316;53.840;10.762;2022-08-19T05:31:45;20.60;99.90
8557;DHT22;4316;53.840;10.762;2022-08-19T05:34:11;20.60;99.90
8557;DHT22;4316;53.840;10.762;2022-08-19T05:36:40;20.70;99.90
8557;DHT22;4316;53.840;10.762;2022-08-19T05:39:07;20.60;99.90
8557;DHT22;4316;53.840;10.762;2022-08-19T05:41:34;20.60;99.90
8557;DHT22;4316;53.840;10.762;2022-08-19T05:44:04;20.40;99.90
8557;DHT22;4316;53.840;10.762;2022-08-19T05:46:37;20.40;99.90
8557;DHT22;4316;53.840;10.762;2022-08-19T05:49:04;20.40;99.90
8557;DHT22;4316;53.840;10.762;2022-08-19T05:51:32;20.30;99.90
8557;DHT22;4316;53.840;10.762;2022-08-19T05:54:00;20.20;99.90
8557;DHT22;4316;53.840;10.762;2022-08-19T05:56:26;20.30;99.90
8557;DHT22;4316;53.840;10.762;2022-08-19T05:58:52;20.40;99.90
8557;DHT22;4316;53.840;10.762;2022-08-19T06:01:20;20.40;99.90
8557;DHT22;4316;53.840;10.762;2022-08-19T06:03:46;20.60;99.90
8557;DHT22;4316;53.840;10.762;2022-08-19T06:06:14;20.50;99.90
8557;DHT22;4316;53.840;10.762;2022-08-19T06:08:40;20.50;99.90
8557;DHT22;4316;53.840;10.762;2022-08-19T06:11:23;20.60;99.90
8557;DHT22;4316;53.840;10.762;2022-08-19T06:13:53;20.50;99.90
8557;DHT22;4316;53.840;10.762;2022-08-19T06:16:20;20.50;99.90
8557;DHT22;4316;53.840;10.762;2022-08-19T06:18:50;20.40;99.90
8557;DHT22;4316;53.840;10.762;2022-08-19T06:21:21;20.40;99.90
8557;DHT22;4316;53.840;10.762;2022-08-19T06:23:48;20.50;99.90
8557;DHT22;4316;53.840;10.762;2022-08-19T06:26:15;20.50;99.90
8557;DHT22;4316;53.840;10.762;2022-08-19T06:28:41;20.50;99.90
8557;DHT22;4316;53.840;10.762;2022-08-19T06:31:09;20.60;99.90
8557;DHT22;4316;53.840;10.762;2022-08-19T06:33:35;20.60;99.90
8557;DHT22;4316;53.840;10.762;2022-08-19T06:36:01;20.50;99.90
8557;DHT22;4316;53.840;10.762;2022-08-19T06:38:26;20.50;99.90
8557;DHT22;4316;53.840;10.762;2022-08-19T06:41:01;20.60;99.90
8557;DHT22;4316;53.840;10.762;2022-08-19T06:43:26;20.50;99.90
8557;DHT22;4316;53.840;10.762;2022-08-19T06:45:52;20.50;99.90
8557;DHT22;4316;53.840;10.762;2022-08-19T06:48:17;20.60;99.90
8557;DHT22;4316;53.840;10.762;2022-08-19T06:50:43;20.60;99.90
8557;DHT22;4316;53.840;10.762;2022-08-19T06:53:09;20.60;99.90
8557;DHT22;4316;53.840;10.762;2022-08-19T06:55:34;20.60;99.90
8557;DHT22;4316;53.840;10.762;2022-08-19T06:58:04;20.60;99.90
8557;DHT22;4316;53.840;10.762;2022-08-19T07:00:29;20.60;99.90
8557;DHT22;4316;53.840;10.762;2022-08-19T07:02:55;20.60;99.90
8557;DHT22;4316;53.840;10.762;2022-08-19T07:05:20;20.60;99.90
8557;DHT22;4316;53.840;10.762;2022-08-19T07:07:46;20.60;99.90
8557;DHT22;4316;53.840;10.762;2022-08-19T07:10:12;20.60;99.90
8557;DHT22;4316;53.840;10.762;2022-08-19T07:12:37;20.60;99.90
8557;DHT22;4316;53.840;10.762;2022-08-19T07:15:05;20.60;99.90
8557;DHT22;4316;53.840;10.762;2022-08-19T07:17:31;20.50;99.90
8557;DHT22;4316;53.840;10.762;2022-08-19T07:19:58;20.50;99.90
8557;DHT22;4316;53.840;10.762;2022-08-19T07:22:23;20.60;99.90
8557;DHT22;4316;53.840;10.762;2022-08-19T07:24:49;20.60;99.90
8557;DHT22;4316;53.840;10.762;2022-08-19T07:27:15;20.60;99.90
8557;DHT22;4316;53.840;10.762;2022-08-19T07:29:41;20.60;99.90
8557;DHT22;4316;53.840;10.762;2022-08-19T07:32:07;20.60;99.90
8557;DHT22;4316;53.840;10.762;2022-08-19T07:34:34;20.70;99.90
8557;DHT22;4316;53.840;10.762;2022-08-19T07:37:06;20.70;99.90
8557;DHT22;4316;53.840;10.762;2022-08-19T07:39:34;20.80;99.90
8557;DHT22;4316;53.840;10.762;2022-08-19T07:42:02;20.80;99.90
8557;DHT22;4316;53.840;10.762;2022-08-19T07:44:29;20.80;99.90
8557;DHT22;4316;53.840;10.762;2022-08-19T07:46:56;20.80;99.90
8557;DHT22;4316;53.840;10.762;2022-08-19T07:49:23;20.80;99.90
8557;DHT22;4316;53.840;10.762;2022-08-19T07:51:55;20.80;99.90
8557;DHT22;4316;53.840;10.762;2022-08-19T07:54:23;20.80;99.90
8557;DHT22;4316;53.840;10.762;2022-08-19T07:56:48;20.80;99.90
8557;DHT22;4316;53.840;10.762;2022-08-19T07:59:17;20.80;99.90
8557;DHT22;4316;53.840;10.762;2022-08-19T08:01:43;20.90;99.90
8557;DHT22;4316;53.840;10.762;2022-08-19T08:04:09;20.90;99.90
8557;DHT22;4316;53.840;10.762;2022-08-19T08:06:53;20.90;99.90
8557;DHT22;4316;53.840;10.762;2022-08-19T08:09:41;20.90;99.90
8557;DHT22;4316;53.840;10.762;2022-08-19T08:12:11;20.90;99.90
8557;DHT22;4316;53.840;10.762;2022-08-19T08:14:44;20.80;99.90
8557;DHT22;4316;53.840;10.762;2022-08-19T08:17:12;20.80;99.90
8557;DHT22;4316;53.840;10.762;2022-08-19T08:19:39;20.90;99.90
8557;DHT22;4316;53.840;10.762;2022-08-19T08:22:07;21.00;99.90
8557;DHT22;4316;53.840;10.762;2022-08-19T08:24:33;20.90;99.90
8557;DHT22;4316;53.840;10.762;2022-08-19T08:27:00;20.90;99.90
8557;DHT22;4316;53.840;10.762;2022-08-19T08:29:28;20.90;99.90
8557;DHT22;4316;53.840;10.762;2022-08-19T08:31:53;20.90;99.90
8557;DHT22;4316;53.840;10.762;2022-08-19T08:34:19;20.90;99.90
8557;DHT22;4316;53.840;10.762;2022-08-19T08:36:45;20.80;99.90
8557;DHT22;4316;53.840;10.762;2022-08-19T08:39:14;20.80;99.90
8557;DHT22;4316;53.840;10.762;2022-08-19T08:44:28;20.70;99.90
8557;DHT22;4316;53.840;10.762;2022-08-19T08:47:02;20.80;99.90
8557;DHT22;4316;53.840;10.762;2022-08-19T08:49:52;20.80;99.90
8557;DHT22;4316;53.840;10.762;2022-08-19T08:52:24;20.80;99.90
8557;DHT22;4316;53.840;10.762;2022-08-19T08:54:53;20.80;99.90
8557;DHT22;4316;53.840;10.762;2022-08-19T08:57:35;20.90;99.90
8557;DHT22;4316;53.840;10.762;2022-08-19T09:00:05;20.90;99.90
8557;DHT22;4316;53.840;10.762;2022-08-19T09:02:32;20.90;99.90
8557;DHT22;4316;53.840;10.762;2022-08-19T09:04:58;20.90;99.90
8557;DHT22;4316;53.840;10.762;2022-08-19T09:16:02;20.90;99.90
8557;DHT22;4316;53.840;10.762;2022-08-19T09:18:51;21.00;99.90
8557;DHT22;4316;53.840;10.762;2022-08-19T09:21:21;21.00;99.90
8557;DHT22;4316;53.840;10.762;2022-08-19T09:23:48;21.00;99.90
8557;DHT22;4316;53.840;10.762;2022-08-19T09:26:18;21.10;99.90
8557;DHT22;4316;53.840;10.762;2022-08-19T09:28:46;21.10;99.90
8557;DHT22;4316;53.840;10.762;2022-08-19T09:31:15;21.20;99.90
8557;DHT22;4316;53.840;10.762;2022-08-19T09:33:41;21.10;99.90
8557;DHT22;4316;53.840;10.762;2022-08-19T09:36:11;21.10;99.90
8557;DHT22;4316;53.840;10.762;2022-08-19T09:38:37;21.10;99.90
8557;DHT22;4316;53.840;10.762;2022-08-19T09:41:09;21.10;99.90
8557;DHT22;4316;53.840;10.762;2022-08-19T09:43:36;21.10;99.90
8557;DHT22;4316;53.840;10.762;2022-08-19T09:46:04;21.10;99.90
8557;DHT22;4316;53.840;10.762;2022-08-19T09:48:32;21.10;99.90
8557;DHT22;4316;53.840;10.762;2022-08-19T09:51:06;21.10;99.90
8557;DHT22;4316;53.840;10.762;2022-08-19T09:53:34;21.10;99.90
8557;DHT22;4316;53.840;10.762;2022-08-19T09:56:01;21.10;99.90
8557;DHT22;4316;53.840;10.762;2022-08-19T09:58:26;21.20;99.90
8557;DHT22;4316;53.840;10.762;2022-08-19T10:00:54;21.20;99.90
8557;DHT22;4316;53.840;10.762;2022-08-19T10:03:20;21.20;99.90
8557;DHT22;4316;53.840;10.762;2022-08-19T10:05:46;21.20;99.90
8557;DHT22;4316;53.840;10.762;2022-08-19T10:08:20;21.30;99.90
8557;DHT22;4316;53.840;10.762;2022-08-19T10:10:47;21.30;99.90
8557;DHT22;4316;53.840;10.762;2022-08-19T10:13:15;21.20;99.90
8557;DHT22;4316;53.840;10.762;2022-08-19T10:15:42;21.20;99.90
8557;DHT22;4316;53.840;10.762;2022-08-19T10:18:08;21.20;99.90
8557;DHT22;4316;53.840;10.762;2022-08-19T10:20:34;21.20;99.90
8557;DHT22;4316;53.840;10.762;2022-08-19T10:23:02;21.20;99.90
8557;DHT22;4316;53.840;10.762;2022-08-19T10:25:28;21.20;99.90
8557;DHT22;4316;53.840;10.762;2022-08-19T10:27:53;21.20;99.90
8557;DHT22;4316;53.840;10.762;2022-08-19T10:30:21;21.20;99.90
8557;DHT22;4316;53.840;10.762;2022-08-19T10:32:47;21.30;99.90
8557;DHT22;4316;53.840;10.762;2022-08-19T10:35:13;21.30;99.90
8557;DHT22;4316;53.840;10.762;2022-08-19T10:37:39;21.30;99.90
8557;DHT22;4316;53.840;10.762;2022-08-19T10:40:07;21.30;99.90
8557;DHT22;4316;53.840;10.762;2022-08-19T10:42:34;21.30;99.90
8557;DHT22;4316;53.840;10.762;2022-08-19T10:45:01;21.30;99.90
8557;DHT22;4316;53.840;10.762;2022-08-19T10:47:26;21.30;99.90
8557;DHT22;4316;53.840;10.762;2022-08-19T10:49:53;21.40;99.90
8557;DHT22;4316;53.840;10.762;2022-08-19T10:52:42;21.40;99.90
8557;DHT22;4316;53.840;10.762;2022-08-19T10:55:08;21.40;99.90
8557;DHT22;4316;53.840;10.762;2022-08-19T10:57:53;21.40;99.90
8557;DHT22;4316;53.840;10.762;2022-08-19T11:00:20;21.40;99.90
8557;DHT22;4316;53.840;10.762;2022-08-19T11:02:46;21.40;99.90
8557;DHT22;4316;53.840;10.762;2022-08-19T11:05:12;21.40;99.90
8557;DHT22;4316;53.840;10.762;2022-08-19T11:07:40;21.40;99.90
8557;DHT22;4316;53.840;10.762;2022-08-19T11:10:08;21.50;99.90
8557;DHT22;4316;53.840;10.762;2022-08-19T11:12:36;21.40;99.90
8557;DHT22;4316;53.840;10.762;2022-08-19T11:15:04;21.50;99.90
8557;DHT22;4316;53.840;10.762;2022-08-19T11:17:30;21.40;99.90
8557;DHT22;4316;53.840;10.762;2022-08-19T11:19:56;21.40;99.90
8557;DHT22;4316;53.840;10.762;2022-08-19T11:22:22;21.30;99.90
8557;DHT22;4316;53.840;10.762;2022-08-19T11:24:47;21.30;99.90
8557;DHT22;4316;53.840;10.762;2022-08-19T11:27:13;21.20;99.90
8557;DHT22;4316;53.840;10.762;2022-08-19T11:29:40;21.10;99.90
8557;DHT22;4316;53.840;10.762;2022-08-19T11:32:09;21.00;99.90
8557;DHT22;4316;53.840;10.762;2022-08-19T11:34:36;21.10;99.90
8557;DHT22;4316;53.840;10.762;2022-08-19T11:37:03;21.00;99.90
8557;DHT22;4316;53.840;10.762;2022-08-19T11:39:30;21.00;99.90
8557;DHT22;4316;53.840;10.762;2022-08-19T11:41:58;21.00;99.90
8557;DHT22;4316;53.840;10.762;2022-08-19T11:44:24;21.00;99.90
8557;DHT22;4316;53.840;10.762;2022-08-19T11:46:50;21.00;99.90
8557;DHT22;4316;53.840;10.762;2022-08-19T11:49:19;21.10;99.90
8557;DHT22;4316;53.840;10.762;2022-08-19T11:51:46;21.10;99.90
8557;DHT22;4316;53.840;10.762;2022-08-19T11:54:14;21.20;99.90
8557;DHT22;4316;53.840;10.762;2022-08-19T11:56:41;21.20;99.90
8557;DHT22;4316;53.840;10.762;2022-08-19T11:59:07;21.30;99.90
8557;DHT22;4316;53.840;10.762;2022-08-19T12:01:33;21.30;99.90
8557;DHT22;4316;53.840;10.762;2022-08-19T12:03:59;21.30;99.90
8557;DHT22;4316;53.840;10.762;2022-08-19T12:06:27;21.40;99.90
8557;DHT22;4316;53.840;10.762;2022-08-19T12:08:55;21.40;99.90
8557;DHT22;4316;53.840;10.762;2022-08-19T12:11:21;21.30;99.90
8557;DHT22;4316;53.840;10.762;2022-08-19T12:13:47;21.40;99.90
8557;DHT22;4316;53.840;10.762;2022-08-19T12:16:21;21.40;99.90
8557;DHT22;4316;53.840;10.762;2022-08-19T12:18:48;21.40;99.90
8557;DHT22;4316;53.840;10.762;2022-08-19T12:21:19;21.40;99.90
8557;DHT22;4316;53.840;10.762;2022-08-19T12:23:47;21.40;99.90
8557;DHT22;4316;53.840;10.762;2022-08-19T12:26:13;21.50;99.90
8557;DHT22;4316;53.840;10.762;2022-08-19T12:28:39;21.60;99.90
8557;DHT22;4316;53.840;10.762;2022-08-19T12:31:05;21.70;99.90
8557;DHT22;4316;53.840;10.762;2022-08-19T12:33:31;21.80;99.90
8557;DHT22;4316;53.840;10.762;2022-08-19T12:36:02;21.80;99.90
8557;DHT22;4316;53.840;10.762;2022-08-19T12:38:29;21.80;99.90
8557;DHT22;4316;53.840;10.762;2022-08-19T12:40:54;21.80;99.90
8557;DHT22;4316;53.840;10.762;2022-08-19T12:43:20;21.80;99.90
8557;DHT22;4316;53.840;10.762;2022-08-19T12:45:46;21.90;99.90
8557;DHT22;4316;53.840;10.762;2022-08-19T12:48:13;21.90;99.90
8557;DHT22;4316;53.840;10.762;2022-08-19T12:50:40;22.00;99.90
8557;DHT22;4316;53.840;10.762;2022-08-19T12:53:06;22.00;99.90
8557;DHT22;4316;53.840;10.762;2022-08-19T12:55:32;22.00;99.90
8557;DHT22;4316;53.840;10.762;2022-08-19T12:57:57;22.00;99.90
8557;DHT22;4316;53.840;10.762;2022-08-19T13:00:23;22.00;99.90
8557;DHT22;4316;53.840;10.762;2022-08-19T13:02:51;22.00;99.90
8557;DHT22;4316;53.840;10.762;2022-08-19T13:05:25;22.10;99.90
8557;DHT22;4316;53.840;10.762;2022-08-19T13:07:53;22.10;99.90
8557;DHT22;4316;53.840;10.762;2022-08-19T13:10:25;22.10;99.90
8557;DHT22;4316;53.840;10.762;2022-08-19T13:12:51;22.20;99.90
8557;DHT22;4316;53.840;10.762;2022-08-19T13:15:19;22.30;99.90
8557;DHT22;4316;53.840;10.762;2022-08-19T13:17:47;22.40;99.90
8557;DHT22;4316;53.840;10.762;2022-08-19T13:20:16;22.40;99.90
8557;DHT22;4316;53.840;10.762;2022-08-19T13:22:41;22.50;99.90
8557;DHT22;4316;53.840;10.762;2022-08-19T13:25:08;22.50;99.90
8557;DHT22;4316;53.840;10.762;2022-08-19T13:27:34;22.50;99.90
8557;DHT22;4316;53.840;10.762;2022-08-19T13:30:00;22.40;99.90
8557;DHT22;4316;53.840;10.762;2022-08-19T13:32:45;22.50;99.90
8557;DHT22;4316;53.840;10.762;2022-08-19T13:35:29;22.50;99.90
8557;DHT22;4316;53.840;10.762;2022-08-19T13:37:55;22.70;99.90
8557;DHT22;4316;53.840;10.762;2022-08-19T13:40:23;22.70;99.90
8557;DHT22;4316;53.840;10.762;2022-08-19T13:42:51;22.80;99.90
8557;DHT22;4316;53.840;10.762;2022-08-19T13:45:19;22.80;99.90
8557;DHT22;4316;53.840;10.762;2022-08-19T13:47:53;22.90;99.90
8557;DHT22;4316;53.840;10.762;2022-08-19T13:50:23;22.90;99.90
8557;DHT22;4316;53.840;10.762;2022-08-19T13:52:51;23.00;99.90
8557;DHT22;4316;53.840;10.762;2022-08-19T13:55:17;23.10;99.90
8557;DHT22;4316;53.840;10.762;2022-08-19T13:57:43;23.00;99.90
8557;DHT22;4316;53.840;10.762;2022-08-19T14:00:13;23.00;99.90
8557;DHT22;4316;53.840;10.762;2022-08-19T14:02:39;23.10;99.90
8557;DHT22;4316;53.840;10.762;2022-08-19T14:05:07;23.10;99.90
8557;DHT22;4316;53.840;10.762;2022-08-19T14:07:34;23.00;99.90
8557;DHT22;4316;53.840;10.762;2022-08-19T14:10:00;23.00;99.90
8557;DHT22;4316;53.840;10.762;2022-08-19T14:12:25;23.10;99.90
8557;DHT22;4316;53.840;10.762;2022-08-19T14:14:51;23.10;99.90
8557;DHT22;4316;53.840;10.762;2022-08-19T14:17:17;23.10;99.90
8557;DHT22;4316;53.840;10.762;2022-08-19T14:19:43;23.00;99.90
8557;DHT22;4316;53.840;10.762;2022-08-19T14:22:08;23.00;99.90
8557;DHT22;4316;53.840;10.762;2022-08-19T14:24:36;23.10;99.90
8557;DHT22;4316;53.840;10.762;2022-08-19T14:27:02;23.00;99.90
8557;DHT22;4316;53.840;10.762;2022-08-19T14:29:28;23.00;99.90
8557;DHT22;4316;53.840;10.762;2022-08-19T14:31:55;23.00;99.90
8557;DHT22;4316;53.840;10.762;2022-08-19T14:34:25;23.10;99.90
8557;DHT22;4316;53.840;10.762;2022-08-19T14:36:51;23.00;99.90
8557;DHT22;4316;53.840;10.762;2022-08-19T14:39:17;23.00;99.90
8557;DHT22;4316;53.840;10.762;2022-08-19T14:41:43;23.10;99.90
8557;DHT22;4316;53.840;10.762;2022-08-19T14:44:08;23.00;99.90
8557;DHT22;4316;53.840;10.762;2022-08-19T14:46:38;23.10;99.90
8557;DHT22;4316;53.840;10.762;2022-08-19T14:49:04;23.20;99.90
8557;DHT22;4316;53.840;10.762;2022-08-19T14:51:30;23.40;99.90
8557;DHT22;4316;53.840;10.762;2022-08-19T14:53:56;23.50;99.90
8557;DHT22;4316;53.840;10.762;2022-08-19T14:56:25;23.50;99.90
8557;DHT22;4316;53.840;10.762;2022-08-19T14:58:51;23.60;99.90
8557;DHT22;4316;53.840;10.762;2022-08-19T15:01:17;23.50;99.90
8557;DHT22;4316;53.840;10.762;2022-08-19T15:03:45;23.50;99.90
8557;DHT22;4316;53.840;10.762;2022-08-19T15:06:11;23.60;99.90
8557;DHT22;4316;53.840;10.762;2022-08-19T15:08:37;23.60;99.90
8557;DHT22;4316;53.840;10.762;2022-08-19T15:11:12;23.60;99.90
8557;DHT22;4316;53.840;10.762;2022-08-19T15:13:40;23.60;99.90
8557;DHT22;4316;53.840;10.762;2022-08-19T15:16:06;23.50;99.90
8557;DHT22;4316;53.840;10.762;2022-08-19T15:18:31;23.50;99.90
8557;DHT22;4316;53.840;10.762;2022-08-19T15:20:58;23.60;99.90
8557;DHT22;4316;53.840;10.762;2022-08-19T15:23:24;23.60;99.90
8557;DHT22;4316;53.840;10.762;2022-08-19T15:25:50;23.50;99.90
8557;DHT22;4316;53.840;10.762;2022-08-19T15:28:23;23.40;99.90
8557;DHT22;4316;53.840;10.762;2022-08-19T15:30:49;23.40;99.90
8557;DHT22;4316;53.840;10.762;2022-08-19T15:33:15;23.50;99.90
8557;DHT22;4316;53.840;10.762;2022-08-19T15:35:46;23.50;99.90
8557;DHT22;4316;53.840;10.762;2022-08-19T15:38:13;23.40;99.90
8557;DHT22;4316;53.840;10.762;2022-08-19T15:40:40;23.40;99.90
8557;DHT22;4316;53.840;10.762;2022-08-19T15:43:07;23.40;99.90
8557;DHT22;4316;53.840;10.762;2022-08-19T15:45:32;23.50;99.90
8557;DHT22;4316;53.840;10.762;2022-08-19T15:47:59;23.50;99.90
8557;DHT22;4316;53.840;10.762;2022-08-19T15:50:25;23.50;99.90
8557;DHT22;4316;53.840;10.762;2022-08-19T15:52:58;23.50;99.90
8557;DHT22;4316;53.840;10.762;2022-08-19T15:55:32;23.40;99.90
8557;DHT22;4316;53.840;10.762;2022-08-19T15:58:08;23.30;99.90
8557;DHT22;4316;53.840;10.762;2022-08-19T16:00:52;23.20;99.90
8557;DHT22;4316;53.840;10.762;2022-08-19T16:03:37;23.10;99.90